createdAt,value
2023-03-06T00:03:31.221Z,1.88
2023-03-06T00:07:52.941Z,1.99
2023-03-06T00:11:18.012Z,1.80
2023-03-06T00:15:09.107Z,1.90
2023-03-06T00:18:50.134Z,2.08
2023-03-06T00:22:25.170Z,2.02
2023-03-06T00:26:17.607Z,2.08
2023-03-06T00:30:17.474Z,2.31
2023-03-06T00:34:07.159Z,2.35
2023-03-06T00:37:40.103Z,2.00
2023-03-06T00:41:30.158Z,2.11
2023-03-06T00:53:20.795Z,2.01
2023-03-06T00:57:38.159Z,1.79
2023-03-06T01:01:35.881Z,1.38
2023-03-06T01:05:25.262Z,1.70
2023-03-06T01:09:39.415Z,1.76
2023-03-06T01:13:30.710Z,1.62
2023-03-06T01:18:16.877Z,1.57
2023-03-06T01:22:17.616Z,1.51
2023-03-06T01:26:34.451Z,1.22
2023-03-06T01:35:00.019Z,1.25
2023-03-06T01:38:54.672Z,1.14
2023-03-06T01:43:29.080Z,1.35
2023-03-06T01:47:18.462Z,0.97
2023-03-06T01:51:19.306Z,1.28
2023-03-06T01:59:53.392Z,1.36
2023-03-06T02:03:54.361Z,1.33
2023-03-06T02:07:28.337Z,0.94
2023-03-06T02:11:07.531Z,1.19
2023-03-06T02:14:48.146Z,0.92
2023-03-06T02:19:03.370Z,0.70
2023-03-06T02:23:13.323Z,1.10
2023-03-06T02:27:04.608Z,0.93
2023-03-06T02:31:12.329Z,0.87
2023-03-06T02:35:47.462Z,0.85
2023-03-06T02:39:40.279Z,1.07
2023-03-06T02:44:05.553Z,0.78
2023-03-06T02:47:48.393Z,0.56
2023-03-06T02:52:20.567Z,0.66
2023-03-06T02:56:24.790Z,0.58
2023-03-06T02:59:53.978Z,0.65
2023-03-06T03:03:57.889Z,0.86
2023-03-06T03:07:48.878Z,0.59
2023-03-06T03:11:56.691Z,0.83
2023-03-06T03:16:04.787Z,0.84
2023-03-06T03:19:51.569Z,0.66
2023-03-06T03:23:42.606Z,0.63
2023-03-06T03:27:24.646Z,0.81
2023-03-06T03:30:31.328Z,0.88
2023-03-06T03:34:35.136Z,0.60
2023-03-06T03:38:26.201Z,0.70
2023-03-06T03:42:53.205Z,0.35
2023-03-06T03:47:02.450Z,0.04
2023-03-06T03:50:34.571Z,-0.02
2023-03-06T03:54:09.435Z,0.06
2023-03-06T03:58:21.525Z,0.54
2023-03-06T04:02:39.250Z,0.68
2023-03-06T04:07:06.128Z,0.77
2023-03-06T04:15:12.436Z,0.65
2023-03-06T04:19:57.236Z,0.52
2023-03-06T04:24:21.909Z,0.46
2023-03-06T04:28:38.637Z,0.58
2023-03-06T04:33:12.429Z,0.52
2023-03-06T04:37:39.629Z,0.40
2023-03-06T04:42:05.566Z,0.16
2023-03-06T04:45:59.416Z,0.23
2023-03-06T04:49:09.335Z,0.10
2023-03-06T04:52:13.044Z,-0.05
2023-03-06T05:01:30.253Z,0.01
2023-03-06T05:05:11.354Z,-0.10
2023-03-06T05:08:45.679Z,-0.14
2023-03-06T05:12:26.224Z,-0.12
2023-03-06T05:17:13.809Z,0.31
2023-03-06T05:21:37.652Z,0.37
2023-03-06T05:26:11.148Z,0.37
2023-03-06T05:30:04.477Z,0.13
2023-03-06T05:33:37.719Z,0.10
2023-03-06T05:37:34.353Z,0.06
2023-03-06T05:42:03.786Z,0.09
2023-03-06T05:45:48.079Z,-0.01
2023-03-06T05:49:52.299Z,-0.24
2023-03-06T05:53:54.766Z,-0.01
2023-03-06T05:58:07.402Z,0.32
2023-03-06T06:02:48.508Z,0.35
2023-03-06T06:10:53.303Z,0.97
2023-03-06T06:14:36.405Z,0.79
2023-03-06T06:18:41.271Z,1.23
2023-03-06T06:22:35.213Z,1.59
2023-03-06T06:26:36.178Z,1.91
2023-03-06T06:30:17.453Z,2.22
2023-03-06T06:33:31.556Z,2.26
2023-03-06T06:36:51.051Z,2.65
2023-03-06T06:40:21.149Z,3.00
2023-03-06T06:43:58.687Z,3.30
2023-03-06T06:47:53.057Z,3.23
2023-03-06T06:51:11.939Z,3.01
2023-03-06T06:54:20.415Z,3.31
2023-03-06T06:57:29.694Z,3.30
2023-03-06T07:00:40.153Z,3.33
2023-03-06T07:03:49.311Z,3.60
2023-03-06T07:06:59.727Z,4.09
2023-03-06T07:10:06.126Z,4.50
2023-03-06T07:13:13.307Z,5.40
2023-03-06T07:16:35.051Z,5.86
2023-03-06T07:19:39.656Z,6.55
2023-03-06T07:22:58.273Z,6.94
2023-03-06T07:26:10.462Z,7.06
2023-03-06T07:29:48.031Z,7.08
2023-03-06T07:33:28.726Z,6.81
2023-03-06T07:53:04.624Z,9.29
2023-03-06T07:56:44.325Z,9.49
2023-03-06T08:00:18.697Z,9.87
2023-03-06T08:09:06.029Z,10.18
2023-03-06T08:12:43.707Z,10.01
2023-03-06T08:16:41.700Z,9.91
2023-03-06T08:20:32.116Z,9.69
2023-03-06T08:23:41.864Z,10.04
2023-03-06T08:26:47.137Z,10.50
2023-03-06T08:30:03.517Z,10.01
2023-03-06T08:33:18.633Z,10.19
2023-03-06T08:36:51.608Z,10.80
2023-03-06T08:40:15.950Z,10.16
2023-03-06T08:43:30.213Z,9.64
2023-03-06T08:46:51.597Z,9.73
2023-03-06T08:50:46.237Z,9.12
2023-03-06T08:58:03.315Z,9.08
2023-03-06T09:02:52.683Z,8.76
2023-03-06T09:06:27.043Z,8.85
2023-03-06T09:10:32.283Z,8.72
2023-03-06T09:13:50.790Z,8.59
2023-03-06T09:17:01.902Z,8.48
2023-03-06T09:20:11.730Z,8.47
2023-03-06T09:23:45.266Z,8.44
2023-03-06T09:27:20.594Z,8.52
2023-03-06T09:31:11.012Z,8.50
2023-03-06T09:34:32.601Z,8.37
2023-03-06T09:38:31.054Z,8.49
2023-03-06T09:42:22.380Z,8.52
2023-03-06T09:45:59.540Z,8.41
2023-03-06T09:49:44.784Z,8.63
2023-03-06T09:57:56.705Z,8.67
2023-03-06T10:02:49.347Z,8.79
2023-03-06T10:06:51.804Z,8.85
2023-03-06T10:10:41.205Z,8.79
2023-03-06T10:15:23.824Z,8.98
2023-03-06T10:18:38.715Z,8.94
2023-03-06T10:30:47.264Z,9.25
2023-03-06T10:34:21.277Z,9.30
2023-03-06T10:38:32.215Z,9.31
2023-03-06T10:42:42.220Z,9.23
2023-03-06T10:46:25.879Z,9.29
2023-03-06T10:49:54.550Z,9.36
2023-03-06T10:53:59.413Z,9.46
2023-03-06T10:59:07.974Z,9.46
2023-03-06T11:03:02.521Z,9.57
2023-03-06T11:06:59.321Z,9.60
2023-03-06T11:11:01.913Z,9.62
2023-03-06T11:14:47.044Z,9.61
2023-03-06T11:18:36.949Z,9.64
2023-03-06T11:27:42.896Z,9.79
2023-03-06T11:32:23.719Z,9.83
2023-03-06T11:49:09.426Z,10.07
2023-03-06T11:53:07.005Z,10.02
2023-03-06T11:57:39.767Z,10.10
2023-03-06T12:06:06.861Z,10.21
2023-03-06T12:09:44.067Z,10.24
2023-03-06T12:13:36.180Z,10.22
2023-03-06T12:17:28.808Z,10.23
2023-03-06T12:20:59.743Z,10.25
2023-03-06T12:24:47.319Z,10.29
2023-03-06T12:28:41.889Z,10.37
2023-03-06T12:32:22.683Z,10.42
2023-03-06T12:36:40.105Z,10.38
2023-03-06T12:40:44.693Z,10.43
2023-03-06T12:44:29.622Z,10.45
2023-03-06T12:48:01.509Z,10.61
2023-03-06T12:51:15.552Z,10.70
2023-03-06T12:55:12.149Z,10.82
2023-03-06T12:59:09.993Z,10.91
2023-03-06T13:03:03.816Z,10.90
2023-03-06T13:07:05.092Z,10.92
2023-03-06T13:11:09.045Z,10.98
2023-03-06T13:15:05.193Z,11.06
2023-03-06T13:33:45.751Z,11.24
2023-03-06T13:38:47.666Z,11.20
2023-03-06T13:42:53.098Z,11.28
2023-03-06T13:47:05.900Z,11.32
2023-03-06T13:50:47.350Z,11.39
2023-03-06T14:00:09.593Z,11.59
2023-03-06T14:12:52.057Z,11.78
2023-03-06T14:16:59.839Z,11.78
2023-03-06T14:21:16.431Z,11.91
2023-03-06T14:26:47.411Z,11.98
2023-03-06T14:35:45.312Z,11.97
2023-03-06T14:38:54.961Z,11.92
2023-03-06T14:42:10.925Z,11.95
2023-03-06T14:46:13.731Z,11.99
2023-03-06T14:50:32.872Z,11.92
2023-03-06T14:54:21.599Z,11.98
2023-03-06T14:57:50.521Z,12.04
2023-03-06T15:01:38.635Z,12.00
2023-03-06T15:04:48.625Z,12.01
2023-03-06T15:07:58.450Z,11.96
2023-03-06T15:11:03.872Z,12.03
2023-03-06T15:14:19.052Z,12.06
2023-03-06T15:18:06.491Z,12.04
2023-03-06T15:21:23.690Z,12.08
2023-03-06T15:24:39.309Z,12.05
2023-03-06T15:27:52.656Z,12.07
2023-03-06T15:31:25.498Z,12.04
2023-03-06T15:35:27.098Z,12.00
2023-03-06T15:38:56.491Z,12.03
2023-03-06T15:42:04.958Z,12.02
2023-03-06T15:53:09.919Z,11.87
2023-03-06T15:56:38.376Z,11.78
2023-03-06T15:59:54.158Z,11.72
2023-03-06T16:03:02.101Z,11.68
2023-03-06T16:14:32.193Z,11.56
2023-03-06T16:18:05.395Z,11.53
2023-03-06T16:21:20.436Z,11.54
2023-03-06T16:24:46.533Z,11.51
2023-03-06T16:28:20.061Z,11.46
2023-03-06T16:31:47.063Z,11.43
2023-03-06T16:34:52.132Z,11.45
2023-03-06T16:38:16.768Z,11.32
2023-03-06T16:42:05.931Z,11.27
2023-03-06T16:45:33.909Z,11.14
2023-03-06T16:48:40.028Z,11.15
2023-03-06T16:52:26.330Z,11.14
2023-03-06T16:55:37.992Z,11.14
2023-03-06T16:58:52.537Z,11.12
2023-03-06T17:02:29.496Z,11.11
2023-03-06T17:05:34.873Z,11.08
2023-03-06T17:08:40.488Z,11.10
2023-03-06T17:11:46.892Z,11.06
2023-03-06T17:14:51.176Z,11.12
2023-03-06T17:17:55.490Z,11.12
2023-03-06T17:21:06.408Z,10.96
2023-03-06T17:24:12.477Z,10.50
2023-03-06T17:27:17.369Z,10.53
2023-03-06T17:30:21.092Z,10.47
2023-03-06T17:33:26.178Z,10.60
2023-03-06T17:36:30.632Z,10.75
2023-03-06T17:39:37.604Z,10.80
2023-03-06T17:42:41.308Z,10.84
2023-03-06T17:45:45.672Z,10.93
2023-03-06T17:48:49.381Z,10.98
2023-03-06T17:51:53.501Z,11.03
2023-03-06T17:54:58.356Z,11.09
2023-03-06T17:58:02.225Z,11.11
2023-03-06T18:01:14.461Z,11.05
2023-03-06T18:04:18.213Z,11.04
2023-03-06T18:07:22.397Z,11.03
2023-03-06T18:10:27.908Z,10.95
2023-03-06T18:13:32.224Z,10.89
2023-03-06T18:16:39.725Z,10.84
2023-03-06T18:19:47.566Z,10.74
2023-03-06T18:22:51.632Z,10.69
2023-03-06T18:26:09.484Z,10.53
2023-03-06T18:29:14.148Z,10.44
2023-03-06T18:32:17.875Z,10.41
2023-03-06T18:35:22.006Z,10.22
2023-03-06T18:38:25.861Z,10.10
2023-03-06T18:41:33.278Z,9.82
2023-03-06T18:44:41.583Z,9.76
2023-03-06T18:47:47.397Z,9.70
2023-03-06T18:50:54.296Z,9.61
2023-03-06T18:53:59.432Z,9.64
2023-03-06T18:57:04.553Z,9.62
2023-03-06T19:00:10.014Z,9.57
2023-03-06T19:03:14.619Z,9.47
2023-03-06T19:06:20.541Z,9.22
2023-03-06T19:09:25.928Z,9.04
2023-03-06T19:12:35.617Z,8.79
2023-03-06T19:15:45.909Z,8.58
2023-03-06T19:18:50.467Z,8.61
2023-03-06T19:21:54.455Z,8.00
2023-03-06T19:24:58.535Z,8.05
2023-03-06T19:28:04.883Z,8.25
2023-03-06T19:31:11.762Z,8.23
2023-03-06T19:34:16.915Z,7.88
2023-03-06T19:37:26.755Z,8.16
2023-03-06T19:40:30.829Z,8.20
2023-03-06T19:43:38.520Z,8.33
2023-03-06T19:46:43.567Z,8.23
2023-03-06T19:49:48.382Z,8.39
2023-03-06T19:52:53.278Z,8.34
2023-03-06T19:56:05.139Z,8.47
2023-03-06T19:59:10.532Z,8.44
2023-03-06T20:02:16.161Z,8.47
2023-03-06T20:05:20.168Z,8.57
2023-03-06T20:08:26.036Z,8.50
2023-03-06T20:11:31.286Z,8.65
2023-03-06T20:14:37.997Z,8.60
2023-03-06T20:17:42.773Z,8.64
2023-03-06T20:20:47.283Z,8.54
2023-03-06T20:23:52.968Z,8.58
2023-03-06T20:27:01.772Z,8.66
2023-03-06T20:30:10.318Z,8.84
2023-03-06T20:37:32.939Z,8.89
2023-03-06T20:47:00.094Z,8.88
2023-03-06T20:51:05.952Z,8.93
2023-03-06T20:54:43.816Z,9.11
2023-03-06T21:02:44.121Z,9.24
2023-03-06T21:06:06.104Z,9.27
2023-03-06T21:09:17.841Z,9.43
2023-03-06T21:12:23.542Z,9.50
2023-03-06T21:15:37.029Z,9.58
2023-03-06T21:19:04.279Z,9.62
2023-03-06T21:22:20.655Z,9.61
2023-03-06T21:25:28.286Z,9.73
2023-03-06T21:28:44.160Z,9.71
2023-03-06T21:32:02.527Z,9.74
2023-03-06T21:35:19.175Z,9.63
2023-03-06T21:38:47.166Z,9.71
2023-03-06T21:41:59.774Z,9.63
2023-03-06T21:45:10.065Z,9.67
2023-03-06T21:48:35.994Z,9.66
2023-03-06T21:51:48.651Z,9.70
2023-03-06T21:55:10.835Z,9.68
2023-03-06T22:03:31.562Z,9.79
2023-03-06T22:06:46.607Z,9.79
2023-03-06T22:10:00.107Z,9.65
2023-03-06T22:13:49.841Z,9.58
2023-03-06T22:17:56.852Z,9.40
2023-03-06T22:21:29.737Z,8.90
2023-03-06T22:25:40.874Z,8.73
2023-03-06T22:29:48.232Z,8.57
2023-03-06T22:34:25.218Z,8.44
2023-03-06T22:37:43.933Z,8.17
2023-03-06T22:41:25.941Z,8.16
2023-03-06T22:45:36.445Z,8.35
2023-03-06T22:49:54.234Z,8.41
2023-03-06T22:53:25.502Z,8.22
2023-03-06T22:57:30.728Z,8.02
2023-03-06T23:01:33.446Z,8.25
2023-03-06T23:05:11.125Z,8.22
2023-03-06T23:09:20.724Z,7.89
2023-03-06T23:17:45.809Z,7.55
2023-03-06T23:22:24.529Z,7.70
2023-03-06T23:31:14.461Z,7.71
2023-03-06T23:35:42.342Z,7.66
2023-03-06T23:40:18.249Z,7.52
2023-03-06T23:44:18.929Z,7.63
2023-03-06T23:48:27.475Z,7.57
2023-03-06T23:52:02.301Z,7.52
2023-03-06T23:55:25.906Z,7.04
2023-03-06T23:59:33.682Z,7.31
